createdAt,value
2023-02-15T00:00:01.016Z,4.20
2023-02-15T00:02:27.903Z,4.20
2023-02-15T00:04:56.997Z,4.20
2023-02-15T00:07:23.796Z,4.20
2023-02-15T00:09:50.657Z,4.20
2023-02-15T00:12:17.530Z,4.20
2023-02-15T00:14:44.604Z,4.20
2023-02-15T00:17:11.602Z,4.20
2023-02-15T00:19:38.446Z,4.20
2023-02-15T00:22:05.270Z,4.20
2023-02-15T00:24:32.066Z,4.20
2023-02-15T00:26:59.556Z,4.10
2023-02-15T00:29:26.595Z,4.10
2023-02-15T00:31:54.205Z,4.10
2023-02-15T00:34:23.696Z,4.10
2023-02-15T00:36:51.098Z,4.10
2023-02-15T00:39:19.299Z,4.10
2023-02-15T00:41:47.371Z,4.10
2023-02-15T00:44:16.362Z,4.20
2023-02-15T00:46:44.225Z,4.20
2023-02-15T00:49:11.619Z,4.10
2023-02-15T00:51:40.477Z,4.20
2023-02-15T00:54:07.750Z,4.20
2023-02-15T00:56:36.729Z,4.20
2023-02-15T00:59:03.690Z,4.20
2023-02-15T01:01:30.789Z,4.20
2023-02-15T01:03:57.983Z,4.20
2023-02-15T01:06:25.055Z,4.20
2023-02-15T01:08:53.125Z,4.20
2023-02-15T01:11:23.323Z,4.10
2023-02-15T01:13:52.299Z,4.10
2023-02-15T01:16:19.684Z,4.10
2023-02-15T01:18:47.420Z,4.10
2023-02-15T01:21:16.612Z,4.10
2023-02-15T01:23:44.057Z,4.10
2023-02-15T01:26:11.130Z,4.10
2023-02-15T01:28:38.919Z,4.10
2023-02-15T01:31:12.736Z,4.10
2023-02-15T01:33:40.035Z,4.10
2023-02-15T01:36:07.444Z,4.10
2023-02-15T01:38:35.828Z,4.10
2023-02-15T01:41:21.086Z,4.10
2023-02-15T01:43:56.819Z,4.00
2023-02-15T01:46:32.174Z,4.10
2023-02-15T01:49:21.790Z,4.10
2023-02-15T01:51:52.236Z,4.00
2023-02-15T01:54:30.428Z,4.00
2023-02-15T01:57:03.511Z,4.00
2023-02-15T01:59:33.904Z,4.00
2023-02-15T02:02:01.658Z,4.00
2023-02-15T02:04:34.735Z,4.00
2023-02-15T02:07:02.076Z,4.00
2023-02-15T02:09:30.037Z,4.00
2023-02-15T02:11:57.289Z,4.00
2023-02-15T02:14:25.296Z,4.00
2023-02-15T02:17:22.203Z,4.00
2023-02-15T02:20:17.777Z,4.00
2023-02-15T02:22:59.751Z,4.00
2023-02-15T02:25:41.557Z,3.90
2023-02-15T02:29:00.547Z,3.90
2023-02-15T02:31:55.736Z,3.90
2023-02-15T02:34:32.741Z,3.90
2023-02-15T02:37:20.976Z,3.90
2023-02-15T02:39:55.094Z,3.90
2023-02-15T02:42:36.850Z,3.90
2023-02-15T02:45:16.429Z,3.80
2023-02-15T02:47:52.068Z,3.80
2023-02-15T02:50:24.144Z,3.80
2023-02-15T02:52:53.286Z,3.80
2023-02-15T02:55:53.448Z,3.80
2023-02-15T02:58:34.748Z,3.80
2023-02-15T03:01:07.278Z,3.80
2023-02-15T03:03:41.359Z,3.80
2023-02-15T03:06:21.285Z,3.80
2023-02-15T03:08:51.873Z,3.80
2023-02-15T03:11:19.037Z,3.80
2023-02-15T03:13:49.600Z,3.80
2023-02-15T03:16:27.165Z,3.80
2023-02-15T03:18:58.932Z,3.80
2023-02-15T03:22:04.830Z,3.80
2023-02-15T03:24:40.906Z,3.80
2023-02-15T03:27:18.551Z,3.80
2023-02-15T03:29:52.738Z,3.80
2023-02-15T03:32:20.447Z,3.80
2023-02-15T03:34:47.684Z,3.80
2023-02-15T03:37:37.599Z,3.80
2023-02-15T03:40:44.606Z,3.80
2023-02-15T03:43:38.152Z,3.80
2023-02-15T03:46:31.192Z,3.70
2023-02-15T03:49:14.402Z,3.70
2023-02-15T03:51:44.553Z,3.70
2023-02-15T03:54:44.160Z,3.70
2023-02-15T03:57:41.986Z,3.70
2023-02-15T04:00:35.020Z,3.70
2023-02-15T04:03:25.557Z,3.70
2023-02-15T04:05:52.655Z,3.70
2023-02-15T04:08:19.671Z,3.70
2023-02-15T04:10:57.074Z,3.60
2023-02-15T04:13:30.925Z,3.60
2023-02-15T04:16:07.810Z,3.60
2023-02-15T04:19:02.827Z,3.60
2023-02-15T04:21:50.449Z,3.60
2023-02-15T04:24:36.289Z,3.60
2023-02-15T04:27:05.223Z,3.50
2023-02-15T04:29:32.882Z,3.50
2023-02-15T04:32:01.477Z,3.50
2023-02-15T04:34:28.440Z,3.50
2023-02-15T04:36:56.644Z,3.50
2023-02-15T04:39:23.658Z,3.40
2023-02-15T04:41:50.507Z,3.40
2023-02-15T04:44:17.343Z,3.40
2023-02-15T04:46:44.146Z,3.40
2023-02-15T04:49:12.034Z,3.50
2023-02-15T04:51:39.144Z,3.30
2023-02-15T04:54:05.988Z,3.20
2023-02-15T04:56:34.214Z,3.20
2023-02-15T04:59:01.541Z,3.20
2023-02-15T05:01:28.967Z,3.20
2023-02-15T05:03:56.190Z,3.10
2023-02-15T05:06:23.380Z,3.10
2023-02-15T05:08:50.377Z,3.10
2023-02-15T05:11:17.234Z,3.10
2023-02-15T05:13:46.178Z,3.10
2023-02-15T05:16:13.205Z,3.10
2023-02-15T05:18:40.099Z,3.10
2023-02-15T05:21:06.892Z,3.10
2023-02-15T05:23:33.778Z,3.10
2023-02-15T05:26:19.561Z,3.10
2023-02-15T05:28:46.508Z,3.10
2023-02-15T05:31:17.356Z,3.20
2023-02-15T05:33:45.093Z,3.20
2023-02-15T05:36:12.488Z,3.20
2023-02-15T05:38:40.292Z,3.20
2023-02-15T05:41:07.890Z,3.20
2023-02-15T05:43:34.904Z,3.20
2023-02-15T05:46:02.940Z,3.20
2023-02-15T05:48:30.161Z,3.20
2023-02-15T05:51:01.584Z,3.20
2023-02-15T05:53:29.680Z,3.20
2023-02-15T05:56:00.483Z,3.20
2023-02-15T05:58:29.998Z,3.20
2023-02-15T06:00:57.945Z,3.30
2023-02-15T06:03:26.825Z,3.30
2023-02-15T06:05:53.962Z,3.30
2023-02-15T06:08:21.538Z,3.40
2023-02-15T06:10:48.350Z,3.30
2023-02-15T06:13:15.204Z,3.40
2023-02-15T06:15:41.969Z,3.40
2023-02-15T06:18:08.774Z,3.30
2023-02-15T06:20:35.606Z,3.20
2023-02-15T06:23:02.479Z,3.20
2023-02-15T06:25:29.899Z,3.20
2023-02-15T06:27:56.657Z,3.20
2023-02-15T06:30:23.401Z,3.30
2023-02-15T06:32:50.199Z,3.30
2023-02-15T06:35:17.101Z,3.40
2023-02-15T06:37:46.845Z,3.50
2023-02-15T06:40:14.022Z,3.50
2023-02-15T06:42:41.819Z,3.50
2023-02-15T06:45:09.258Z,3.40
2023-02-15T06:47:37.772Z,3.40
2023-02-15T06:50:07.692Z,3.40
2023-02-15T06:52:35.081Z,3.30
2023-02-15T06:55:02.114Z,3.30
2023-02-15T06:57:28.873Z,3.30
2023-02-15T06:59:55.734Z,3.30
2023-02-15T07:02:22.459Z,3.30
2023-02-15T07:04:49.222Z,3.40
2023-02-15T07:07:16.348Z,3.40
2023-02-15T07:09:43.245Z,3.40
2023-02-15T07:12:29.801Z,3.40
2023-02-15T07:14:56.641Z,3.40
2023-02-15T07:17:38.791Z,3.30
2023-02-15T07:20:14.151Z,3.30
2023-02-15T07:22:40.979Z,3.30
2023-02-15T07:25:10.553Z,3.30
2023-02-15T07:27:38.037Z,3.30
2023-02-15T07:30:06.300Z,3.30
2023-02-15T07:32:34.665Z,3.30
2023-02-15T07:35:02.157Z,3.40
2023-02-15T07:37:29.326Z,3.40
2023-02-15T07:39:56.268Z,3.40
2023-02-15T07:42:23.259Z,3.50
2023-02-15T07:44:50.448Z,3.60
2023-02-15T07:47:17.630Z,3.60
2023-02-15T07:49:44.570Z,3.70
2023-02-15T07:52:11.552Z,3.70
2023-02-15T07:54:38.607Z,3.70
2023-02-15T07:57:05.479Z,3.60
2023-02-15T07:59:32.357Z,3.60
2023-02-15T08:01:59.536Z,3.60
2023-02-15T08:04:26.624Z,3.60
2023-02-15T08:06:55.312Z,3.60
2023-02-15T08:09:22.969Z,3.70
2023-02-15T08:11:50.367Z,3.70
2023-02-15T08:14:25.605Z,3.60
2023-02-15T08:16:55.926Z,3.70
2023-02-15T08:19:32.704Z,3.70
2023-02-15T08:22:01.807Z,3.70
2023-02-15T08:24:32.723Z,3.70
2023-02-15T08:27:00.276Z,3.80
2023-02-15T08:29:29.607Z,3.80
2023-02-15T08:32:03.365Z,3.80
2023-02-15T08:34:32.541Z,3.90
2023-02-15T08:36:59.668Z,3.90
2023-02-15T08:39:26.421Z,3.90
2023-02-15T08:41:53.668Z,3.90
2023-02-15T08:44:21.512Z,3.90
2023-02-15T08:46:49.739Z,4.00
2023-02-15T08:49:21.865Z,4.00
2023-02-15T08:51:50.051Z,3.90
2023-02-15T08:54:20.072Z,4.00
2023-02-15T08:56:47.507Z,4.00
2023-02-15T08:59:17.771Z,4.10
2023-02-15T09:01:45.677Z,4.00
2023-02-15T09:04:14.214Z,4.00
2023-02-15T09:06:46.999Z,4.00
2023-02-15T09:09:15.799Z,3.90
2023-02-15T09:11:45.027Z,4.00
2023-02-15T09:14:15.449Z,4.00
2023-02-15T09:16:47.413Z,4.00
2023-02-15T09:19:14.608Z,4.10
2023-02-15T09:21:42.213Z,4.10
2023-02-15T09:24:11.892Z,4.10
2023-02-15T09:26:42.092Z,4.10
2023-02-15T09:29:10.087Z,4.10
2023-02-15T09:31:45.990Z,4.10
2023-02-15T09:34:15.352Z,4.20
2023-02-15T09:36:42.572Z,4.20
2023-02-15T09:39:15.068Z,4.20
2023-02-15T09:41:54.859Z,4.10
2023-02-15T09:44:47.612Z,4.10
2023-02-15T09:47:24.435Z,4.10
2023-02-15T09:50:15.801Z,4.20
2023-02-15T09:53:24.106Z,4.30
2023-02-15T09:56:17.231Z,4.30
2023-02-15T09:59:23.171Z,4.30
2023-02-15T10:02:05.750Z,4.30
2023-02-15T10:04:50.341Z,4.30
2023-02-15T10:07:52.941Z,4.30
2023-02-15T10:10:47.304Z,4.40
2023-02-15T10:13:42.698Z,4.40
2023-02-15T10:16:48.443Z,4.50
2023-02-15T10:19:46.206Z,4.60
2023-02-15T10:22:34.742Z,4.60
2023-02-15T10:25:40.449Z,4.50
2023-02-15T10:28:15.556Z,4.50
2023-02-15T10:30:52.984Z,4.60
2023-02-15T10:33:39.427Z,4.60
2023-02-15T10:36:06.479Z,4.60
2023-02-15T10:38:59.589Z,4.70
2023-02-15T10:41:58.235Z,4.70
2023-02-15T10:44:39.238Z,4.80
2023-02-15T10:47:13.024Z,4.90
2023-02-15T10:50:04.490Z,4.90
2023-02-15T10:52:52.424Z,4.90
2023-02-15T10:55:39.661Z,4.90
2023-02-15T10:58:18.862Z,4.80
2023-02-15T11:01:05.668Z,4.80
2023-02-15T11:03:57.210Z,4.70
2023-02-15T11:06:28.059Z,4.70
2023-02-15T11:09:02.337Z,4.60
2023-02-15T11:11:34.985Z,4.60
2023-02-15T11:14:06.509Z,4.60
2023-02-15T11:16:42.602Z,4.50
2023-02-15T11:19:36.718Z,4.60
2023-02-15T11:22:06.822Z,4.60
2023-02-15T11:24:42.441Z,4.60
2023-02-15T11:27:29.597Z,4.70
2023-02-15T11:29:57.017Z,4.70
2023-02-15T11:32:41.086Z,4.80
2023-02-15T11:35:22.535Z,4.90
2023-02-15T11:38:17.463Z,5.00
2023-02-15T11:40:55.739Z,5.00
2023-02-15T11:43:43.587Z,5.10
2023-02-15T11:46:13.130Z,5.20
2023-02-15T11:48:40.751Z,5.20
2023-02-15T11:51:14.708Z,5.20
2023-02-15T11:53:41.606Z,5.20
2023-02-15T11:56:18.906Z,5.00
2023-02-15T11:58:48.686Z,5.00
2023-02-15T12:01:19.576Z,4.90
2023-02-15T12:03:53.505Z,4.90
2023-02-15T12:06:23.654Z,4.80
2023-02-15T12:09:12.274Z,4.80
2023-02-15T12:11:41.737Z,4.80
2023-02-15T12:14:16.858Z,4.90
2023-02-15T12:16:54.486Z,5.00
2023-02-15T12:19:33.847Z,5.00
2023-02-15T12:22:04.668Z,5.00
2023-02-15T12:24:37.700Z,5.10
2023-02-15T12:27:35.454Z,5.10
2023-02-15T12:30:19.424Z,5.10
2023-02-15T12:32:55.408Z,5.20
2023-02-15T12:35:31.551Z,5.20
2023-02-15T12:38:11.462Z,5.20
2023-02-15T12:40:41.093Z,5.20
2023-02-15T12:43:37.114Z,5.20
2023-02-15T12:46:26.419Z,5.20
2023-02-15T12:49:20.993Z,5.20
2023-02-15T12:51:53.292Z,5.20
2023-02-15T12:54:42.195Z,5.20
2023-02-15T12:57:29.945Z,5.20
2023-02-15T13:00:04.057Z,5.10
2023-02-15T13:02:51.158Z,5.10
2023-02-15T13:05:31.619Z,5.00
2023-02-15T13:08:09.239Z,5.00
2023-02-15T13:10:40.388Z,5.00
2023-02-15T13:13:22.825Z,4.90
2023-02-15T13:15:56.251Z,4.90
2023-02-15T13:18:33.597Z,4.80
2023-02-15T13:21:23.097Z,4.70
2023-02-15T13:23:58.585Z,4.70
2023-02-15T13:26:30.613Z,4.70
2023-02-15T13:29:09.552Z,4.60
2023-02-15T13:31:37.467Z,4.70
2023-02-15T13:34:23.478Z,4.70
2023-02-15T13:37:13.822Z,4.80
2023-02-15T13:39:40.814Z,4.90
2023-02-15T13:42:22.357Z,4.90
2023-02-15T13:45:02.753Z,4.90
2023-02-15T13:47:50.144Z,4.90
2023-02-15T13:50:54.513Z,4.90
2023-02-15T13:53:42.802Z,4.80
2023-02-15T13:56:21.214Z,4.80
2023-02-15T13:58:54.879Z,4.80
2023-02-15T14:01:49.237Z,4.80
2023-02-15T14:04:30.741Z,4.80
2023-02-15T14:07:22.602Z,4.70
2023-02-15T14:10:05.467Z,4.80
2023-02-15T14:12:56.461Z,4.80
2023-02-15T14:15:25.926Z,4.80
2023-02-15T14:17:52.923Z,4.80
2023-02-15T14:20:25.764Z,4.90
2023-02-15T14:23:32.064Z,4.80
2023-02-15T14:26:07.386Z,4.90
2023-02-15T14:28:43.316Z,4.80
2023-02-15T14:31:14.246Z,4.70
2023-02-15T14:34:13.754Z,4.70
2023-02-15T14:36:40.751Z,4.70
2023-02-15T14:39:45.803Z,4.60
2023-02-15T14:42:33.817Z,4.50
2023-02-15T14:45:44.030Z,4.40
2023-02-15T14:48:19.039Z,4.30
2023-02-15T14:50:49.714Z,4.20
2023-02-15T14:53:24.201Z,4.20
2023-02-15T14:56:09.002Z,4.20
2023-02-15T14:58:38.389Z,4.20
2023-02-15T15:01:12.739Z,4.30
2023-02-15T15:03:53.933Z,4.30
2023-02-15T15:06:42.112Z,4.40
2023-02-15T15:09:22.393Z,4.40
2023-02-15T15:11:53.627Z,4.40
2023-02-15T15:14:33.566Z,4.30
2023-02-15T15:17:08.170Z,4.30
2023-02-15T15:19:52.355Z,4.30
2023-02-15T15:22:20.907Z,4.30
2023-02-15T15:24:58.597Z,4.20
2023-02-15T15:27:49.712Z,4.20
2023-02-15T15:30:19.701Z,4.10
2023-02-15T15:32:58.143Z,4.10
2023-02-15T15:35:54.612Z,4.00
2023-02-15T15:38:41.520Z,3.90
2023-02-15T15:41:23.650Z,3.80
2023-02-15T15:43:59.879Z,3.70
2023-02-15T15:46:31.832Z,3.70
2023-02-15T15:49:11.461Z,3.60
2023-02-15T15:51:42.641Z,3.60
2023-02-15T15:54:20.255Z,3.60
2023-02-15T15:57:03.195Z,3.60
2023-02-15T15:59:33.814Z,3.60
2023-02-15T16:02:16.398Z,3.60
2023-02-15T16:04:44.226Z,3.60
2023-02-15T16:07:20.495Z,3.70
2023-02-15T16:10:06.153Z,3.70
2023-02-15T16:12:37.941Z,3.70
2023-02-15T16:15:21.322Z,3.80
2023-02-15T16:17:55.968Z,3.80
2023-02-15T16:20:26.160Z,3.80
2023-02-15T16:23:27.138Z,3.90
2023-02-15T16:26:24.261Z,3.80
2023-02-15T16:28:53.257Z,3.80
2023-02-15T16:31:23.965Z,3.80
2023-02-15T16:33:54.864Z,3.80
2023-02-15T16:36:28.433Z,3.80
2023-02-15T16:38:58.333Z,3.80
2023-02-15T16:41:30.556Z,3.80
2023-02-15T16:44:07.060Z,3.70
2023-02-15T16:46:47.246Z,3.70
2023-02-15T16:49:26.723Z,3.70
2023-02-15T16:52:06.355Z,3.60
2023-02-15T16:54:34.892Z,3.60
2023-02-15T16:57:02.793Z,3.70
2023-02-15T16:59:43.348Z,3.70
2023-02-15T17:02:42.970Z,3.70
2023-02-15T17:05:20.887Z,3.70
2023-02-15T17:08:24.897Z,3.70
2023-02-15T17:11:00.756Z,3.80
2023-02-15T17:13:28.918Z,3.70
2023-02-15T17:16:02.470Z,3.80
2023-02-15T17:18:45.138Z,3.80
2023-02-15T17:21:18.130Z,3.80
2023-02-15T17:23:50.686Z,3.80
2023-02-15T17:26:30.987Z,3.80
2023-02-15T17:29:11.870Z,3.80
2023-02-15T17:31:39.262Z,3.80
2023-02-15T17:34:06.823Z,3.70
2023-02-15T17:36:33.837Z,3.70
2023-02-15T17:39:07.046Z,3.70
2023-02-15T17:41:35.928Z,3.70
2023-02-15T17:44:03.928Z,3.70
2023-02-15T17:46:36.884Z,3.70
2023-02-15T17:49:04.629Z,3.70
2023-02-15T17:51:33.120Z,3.70
2023-02-15T17:54:18.919Z,3.70
2023-02-15T17:56:45.735Z,3.70
2023-02-15T17:59:15.207Z,3.60
2023-02-15T18:02:05.918Z,3.60
2023-02-15T18:04:55.293Z,3.60
2023-02-15T18:07:40.792Z,3.60
2023-02-15T18:10:37.694Z,3.60
2023-02-15T18:13:04.800Z,3.60
2023-02-15T18:15:31.653Z,3.60
2023-02-15T18:17:58.736Z,3.60
2023-02-15T18:20:32.956Z,3.50
2023-02-15T18:23:02.017Z,3.50
2023-02-15T18:25:28.950Z,3.50
2023-02-15T18:27:55.762Z,3.50
2023-02-15T18:30:25.576Z,3.50
2023-02-15T18:32:56.538Z,3.40
2023-02-15T18:35:28.590Z,3.40
2023-02-15T18:37:55.947Z,3.30
2023-02-15T18:40:25.770Z,3.30
2023-02-15T18:42:53.060Z,3.30
2023-02-15T18:45:24.952Z,3.40
2023-02-15T18:47:52.035Z,3.40
2023-02-15T18:50:21.159Z,3.40
2023-02-15T18:52:51.599Z,3.40
2023-02-15T18:55:21.576Z,3.40
2023-02-15T18:57:49.526Z,3.40
2023-02-15T19:00:30.141Z,3.40
2023-02-15T19:02:57.696Z,3.40
2023-02-15T19:05:27.483Z,3.40
2023-02-15T19:07:55.227Z,3.50
2023-02-15T19:10:24.617Z,3.50
2023-02-15T19:12:52.516Z,3.50
2023-02-15T19:15:24.787Z,3.50
2023-02-15T19:17:52.381Z,3.50
2023-02-15T19:20:23.584Z,3.50
2023-02-15T19:22:52.267Z,3.40
2023-02-15T19:25:25.640Z,3.40
2023-02-15T19:27:54.845Z,3.40
2023-02-15T19:30:32.355Z,3.40
2023-02-15T19:32:59.906Z,3.40
2023-02-15T19:35:31.748Z,3.40
2023-02-15T19:38:01.779Z,3.40
2023-02-15T19:40:35.004Z,3.40
2023-02-15T19:43:03.162Z,3.30
2023-02-15T19:45:32.363Z,3.30
2023-02-15T19:48:01.853Z,3.20
2023-02-15T19:50:31.588Z,3.20
2023-02-15T19:52:58.498Z,3.20
2023-02-15T19:55:26.400Z,3.10
2023-02-15T19:57:54.628Z,3.10
2023-02-15T20:00:25.688Z,3.10
2023-02-15T20:02:53.511Z,3.00
2023-02-15T20:05:20.774Z,3.00
2023-02-15T20:07:50.139Z,2.90
2023-02-15T20:10:35.657Z,2.90
2023-02-15T20:13:02.924Z,2.80
2023-02-15T20:15:34.782Z,2.80
2023-02-15T20:18:04.098Z,2.70
2023-02-15T20:20:44.370Z,2.70
2023-02-15T20:23:27.433Z,2.70
2023-02-15T20:25:58.582Z,2.70
2023-02-15T20:28:29.275Z,2.60
2023-02-15T20:30:56.228Z,2.60
2023-02-15T20:33:23.627Z,2.60
2023-02-15T20:35:51.115Z,2.50
2023-02-15T20:38:28.111Z,2.50
2023-02-15T20:41:15.089Z,2.50
2023-02-15T20:43:41.866Z,2.40
2023-02-15T20:46:08.935Z,2.40
2023-02-15T20:48:36.211Z,2.40
2023-02-15T20:51:03.775Z,2.30
2023-02-15T20:53:31.061Z,2.30
2023-02-15T20:55:57.864Z,2.30
2023-02-15T20:58:27.703Z,2.30
2023-02-15T21:00:56.881Z,2.30
2023-02-15T21:03:27.918Z,2.20
2023-02-15T21:05:54.651Z,2.20
2023-02-15T21:08:22.949Z,2.20
2023-02-15T21:10:52.073Z,2.10
2023-02-15T21:13:22.113Z,2.10
2023-02-15T21:15:50.189Z,2.10
2023-02-15T21:18:23.665Z,2.10
2023-02-15T21:20:55.462Z,2.00
2023-02-15T21:23:27.029Z,2.00
2023-02-15T21:25:55.988Z,2.00
2023-02-15T21:28:25.525Z,2.00
2023-02-15T21:30:53.849Z,1.90
2023-02-15T21:33:21.130Z,1.90
2023-02-15T21:35:51.106Z,1.90
2023-02-15T21:38:21.448Z,1.80
2023-02-15T21:40:49.754Z,1.80
2023-02-15T21:43:41.397Z,1.80
2023-02-15T21:46:37.168Z,1.80
2023-02-15T21:49:07.124Z,1.70
2023-02-15T21:51:52.872Z,1.80
2023-02-15T21:54:21.747Z,1.70
2023-02-15T21:56:50.940Z,1.70
2023-02-15T21:59:18.520Z,1.70
2023-02-15T22:01:48.398Z,1.60
2023-02-15T22:04:23.240Z,1.60
2023-02-15T22:06:50.357Z,1.60
2023-02-15T22:09:20.632Z,1.60
2023-02-15T22:11:48.506Z,1.50
2023-02-15T22:14:37.133Z,1.60
2023-02-15T22:17:14.980Z,1.50
2023-02-15T22:19:42.625Z,1.50
2023-02-15T22:22:10.268Z,1.50
2023-02-15T22:24:37.309Z,1.50
2023-02-15T22:27:05.804Z,1.40
2023-02-15T22:29:33.810Z,1.40
2023-02-15T22:32:00.875Z,1.40
2023-02-15T22:34:32.436Z,1.40
2023-02-15T22:36:59.677Z,1.40
2023-02-15T22:39:26.508Z,1.40
2023-02-15T22:41:54.350Z,1.30
2023-02-15T22:44:28.753Z,1.30
2023-02-15T22:46:56.321Z,1.30
2023-02-15T22:49:23.124Z,1.30
2023-02-15T22:51:51.464Z,1.30
2023-02-15T22:54:19.124Z,1.30
2023-02-15T22:56:53.273Z,1.20
2023-02-15T22:59:29.014Z,1.20
2023-02-15T23:01:57.132Z,1.20
2023-02-15T23:04:27.464Z,1.20
2023-02-15T23:06:57.564Z,1.20
2023-02-15T23:09:24.808Z,1.20
2023-02-15T23:11:52.950Z,1.20
2023-02-15T23:14:27.378Z,1.20
2023-02-15T23:16:54.711Z,1.20
2023-02-15T23:19:21.828Z,1.20
2023-02-15T23:21:50.295Z,1.10
2023-02-15T23:24:25.683Z,1.20
2023-02-15T23:26:53.725Z,1.10
2023-02-15T23:29:23.821Z,1.10
2023-02-15T23:31:53.115Z,1.10
2023-02-15T23:34:22.637Z,1.10
2023-02-15T23:36:49.795Z,1.10
2023-02-15T23:39:38.289Z,1.10
2023-02-15T23:42:10.092Z,1.10
2023-02-15T23:44:38.073Z,1.00
2023-02-15T23:47:07.187Z,1.00
2023-02-15T23:49:33.955Z,1.00
2023-02-15T23:52:01.856Z,0.90
2023-02-15T23:54:28.870Z,0.90
2023-02-15T23:57:00.115Z,0.90
2023-02-15T23:59:28.970Z,0.90
